sensor_id;sensor_type;location;lat;lon;timestamp;P1;durP1;ratioP1;P2;durP2;ratioP2
37781;SDS011;23621;50.878;4.584;2023-02-24T00:02:01;9.07;;;3.88;;
37781;SDS011;23621;50.878;4.584;2023-02-24T00:04:35;11.30;;;3.72;;
37781;SDS011;23621;50.878;4.584;2023-02-24T00:07:05;13.73;;;3.85;;
37781;SDS011;23621;50.878;4.584;2023-02-24T00:09:33;13.07;;;3.78;;
37781;SDS011;23621;50.878;4.584;2023-02-24T00:12:05;9.50;;;3.28;;
37781;SDS011;23621;50.878;4.584;2023-02-24T00:14:35;15.77;;;3.67;;
37781;SDS011;23621;50.878;4.584;2023-02-24T00:17:04;12.00;;;3.13;;
37781;SDS011;23621;50.878;4.584;2023-02-24T00:19:35;15.52;;;3.63;;
37781;SDS011;23621;50.878;4.584;2023-02-24T00:22:03;13.25;;;3.75;;
37781;SDS011;23621;50.878;4.584;2023-02-24T00:24:32;14.13;;;4.63;;
37781;SDS011;23621;50.878;4.584;2023-02-24T00:27:00;12.27;;;3.88;;
37781;SDS011;23621;50.878;4.584;2023-02-24T00:29:33;14.60;;;3.40;;
37781;SDS011;23621;50.878;4.584;2023-02-24T00:32:02;11.85;;;3.90;;
37781;SDS011;23621;50.878;4.584;2023-02-24T00:34:33;12.30;;;3.45;;
37781;SDS011;23621;50.878;4.584;2023-02-24T00:37:01;11.70;;;3.38;;
37781;SDS011;23621;50.878;4.584;2023-02-24T00:39:32;13.90;;;3.38;;
37781;SDS011;23621;50.878;4.584;2023-02-24T00:42:00;10.75;;;3.60;;
37781;SDS011;23621;50.878;4.584;2023-02-24T00:44:38;18.25;;;4.18;;
37781;SDS011;23621;50.878;4.584;2023-02-24T00:47:07;14.55;;;3.67;;
37781;SDS011;23621;50.878;4.584;2023-02-24T00:49:36;10.63;;;3.72;;
37781;SDS011;23621;50.878;4.584;2023-02-24T00:52:12;13.18;;;3.55;;
37781;SDS011;23621;50.878;4.584;2023-02-24T00:54:41;12.70;;;3.67;;
37781;SDS011;23621;50.878;4.584;2023-02-24T00:57:09;16.08;;;4.10;;
37781;SDS011;23621;50.878;4.584;2023-02-24T00:59:36;14.60;;;3.67;;
37781;SDS011;23621;50.878;4.584;2023-02-24T01:02:04;13.80;;;3.92;;
37781;SDS011;23621;50.878;4.584;2023-02-24T01:04:32;17.48;;;3.78;;
37781;SDS011;23621;50.878;4.584;2023-02-24T01:07:00;13.77;;;3.50;;
37781;SDS011;23621;50.878;4.584;2023-02-24T01:09:28;9.80;;;3.67;;
37781;SDS011;23621;50.878;4.584;2023-02-24T01:11:57;12.55;;;3.97;;
37781;SDS011;23621;50.878;4.584;2023-02-24T01:14:48;12.35;;;3.40;;
37781;SDS011;23621;50.878;4.584;2023-02-24T01:17:18;13.57;;;3.40;;
37781;SDS011;23621;50.878;4.584;2023-02-24T01:19:46;14.45;;;3.85;;
37781;SDS011;23621;50.878;4.584;2023-02-24T01:22:15;10.02;;;3.83;;
37781;SDS011;23621;50.878;4.584;2023-02-24T01:24:43;12.93;;;4.25;;
37781;SDS011;23621;50.878;4.584;2023-02-24T01:27:11;8.63;;;3.83;;
37781;SDS011;23621;50.878;4.584;2023-02-24T01:29:40;12.93;;;3.80;;
37781;SDS011;23621;50.878;4.584;2023-02-24T01:32:20;13.13;;;4.18;;
37781;SDS011;23621;50.878;4.584;2023-02-24T01:34:50;12.02;;;4.35;;
37781;SDS011;23621;50.878;4.584;2023-02-24T01:37:18;12.43;;;4.20;;
37781;SDS011;23621;50.878;4.584;2023-02-24T01:39:46;16.70;;;4.22;;
37781;SDS011;23621;50.878;4.584;2023-02-24T01:42:14;9.90;;;3.75;;
37781;SDS011;23621;50.878;4.584;2023-02-24T01:47:12;12.95;;;4.28;;
37781;SDS011;23621;50.878;4.584;2023-02-24T01:49:44;16.35;;;4.03;;
37781;SDS011;23621;50.878;4.584;2023-02-24T01:52:22;16.95;;;4.18;;
37781;SDS011;23621;50.878;4.584;2023-02-24T01:54:58;14.30;;;4.00;;
37781;SDS011;23621;50.878;4.584;2023-02-24T01:57:38;16.92;;;4.32;;
37781;SDS011;23621;50.878;4.584;2023-02-24T02:00:07;14.05;;;4.20;;
37781;SDS011;23621;50.878;4.584;2023-02-24T02:02:37;15.05;;;4.47;;
37781;SDS011;23621;50.878;4.584;2023-02-24T02:05:08;15.45;;;3.72;;
37781;SDS011;23621;50.878;4.584;2023-02-24T02:07:36;12.02;;;3.83;;
37781;SDS011;23621;50.878;4.584;2023-02-24T02:10:05;9.90;;;3.45;;
37781;SDS011;23621;50.878;4.584;2023-02-24T02:12:35;13.63;;;4.43;;
37781;SDS011;23621;50.878;4.584;2023-02-24T02:15:14;11.55;;;4.50;;
37781;SDS011;23621;50.878;4.584;2023-02-24T02:18:06;10.50;;;4.30;;
37781;SDS011;23621;50.878;4.584;2023-02-24T02:24:13;12.30;;;3.47;;
37781;SDS011;23621;50.878;4.584;2023-02-24T02:37:46;12.80;;;3.60;;
37781;SDS011;23621;50.878;4.584;2023-02-24T02:40:32;10.48;;;3.55;;
37781;SDS011;23621;50.878;4.584;2023-02-24T02:43:13;12.00;;;3.50;;
37781;SDS011;23621;50.878;4.584;2023-02-24T02:45:48;9.93;;;3.60;;
37781;SDS011;23621;50.878;4.584;2023-02-24T02:48:56;8.88;;;3.25;;
37781;SDS011;23621;50.878;4.584;2023-02-24T02:51:29;11.93;;;4.00;;
37781;SDS011;23621;50.878;4.584;2023-02-24T02:56:47;14.50;;;4.07;;
37781;SDS011;23621;50.878;4.584;2023-02-24T02:59:18;11.93;;;4.00;;
37781;SDS011;23621;50.878;4.584;2023-02-24T03:01:50;12.75;;;3.70;;
37781;SDS011;23621;50.878;4.584;2023-02-24T03:04:26;12.82;;;3.55;;
37781;SDS011;23621;50.878;4.584;2023-02-24T03:06:56;11.73;;;4.40;;
37781;SDS011;23621;50.878;4.584;2023-02-24T03:09:27;11.00;;;3.65;;
37781;SDS011;23621;50.878;4.584;2023-02-24T03:11:59;13.15;;;3.58;;
37781;SDS011;23621;50.878;4.584;2023-02-24T03:14:34;12.70;;;3.33;;
37781;SDS011;23621;50.878;4.584;2023-02-24T03:17:08;12.23;;;3.72;;
37781;SDS011;23621;50.878;4.584;2023-02-24T03:19:40;11.68;;;3.65;;
37781;SDS011;23621;50.878;4.584;2023-02-24T03:22:10;13.48;;;4.07;;
37781;SDS011;23621;50.878;4.584;2023-02-24T03:24:41;13.27;;;3.70;;
37781;SDS011;23621;50.878;4.584;2023-02-24T03:27:16;13.32;;;3.72;;
37781;SDS011;23621;50.878;4.584;2023-02-24T03:29:52;10.15;;;3.33;;
37781;SDS011;23621;50.878;4.584;2023-02-24T03:32:25;11.60;;;3.90;;
37781;SDS011;23621;50.878;4.584;2023-02-24T03:35:00;9.43;;;3.00;;
37781;SDS011;23621;50.878;4.584;2023-02-24T03:37:37;11.73;;;3.50;;
37781;SDS011;23621;50.878;4.584;2023-02-24T03:40:06;13.15;;;3.22;;
37781;SDS011;23621;50.878;4.584;2023-02-24T03:42:40;9.25;;;3.33;;
37781;SDS011;23621;50.878;4.584;2023-02-24T03:45:11;5.88;;;2.72;;
37781;SDS011;23621;50.878;4.584;2023-02-24T03:47:39;7.28;;;2.75;;
37781;SDS011;23621;50.878;4.584;2023-02-24T03:50:16;13.48;;;3.95;;
37781;SDS011;23621;50.878;4.584;2023-02-24T04:01:09;10.70;;;3.03;;
37781;SDS011;23621;50.878;4.584;2023-02-24T04:04:17;10.07;;;2.97;;
37781;SDS011;23621;50.878;4.584;2023-02-24T04:20:29;6.57;;;2.80;;
37781;SDS011;23621;50.878;4.584;2023-02-24T04:23:01;5.85;;;2.50;;
37781;SDS011;23621;50.878;4.584;2023-02-24T04:25:36;11.48;;;3.33;;
37781;SDS011;23621;50.878;4.584;2023-02-24T04:28:04;6.95;;;2.67;;
37781;SDS011;23621;50.878;4.584;2023-02-24T04:30:37;9.48;;;2.83;;
37781;SDS011;23621;50.878;4.584;2023-02-24T04:33:08;10.10;;;2.90;;
37781;SDS011;23621;50.878;4.584;2023-02-24T04:35:35;9.50;;;2.92;;
37781;SDS011;23621;50.878;4.584;2023-02-24T04:38:03;7.28;;;3.33;;
37781;SDS011;23621;50.878;4.584;2023-02-24T04:40:30;10.32;;;2.83;;
37781;SDS011;23621;50.878;4.584;2023-02-24T04:42:57;6.93;;;2.85;;
37781;SDS011;23621;50.878;4.584;2023-02-24T04:45:25;7.05;;;2.70;;
37781;SDS011;23621;50.878;4.584;2023-02-24T04:47:55;6.07;;;2.28;;
37781;SDS011;23621;50.878;4.584;2023-02-24T04:50:28;10.00;;;3.20;;
37781;SDS011;23621;50.878;4.584;2023-02-24T04:52:57;8.60;;;2.72;;
37781;SDS011;23621;50.878;4.584;2023-02-24T04:55:27;5.38;;;2.70;;
37781;SDS011;23621;50.878;4.584;2023-02-24T04:57:59;9.80;;;2.95;;
37781;SDS011;23621;50.878;4.584;2023-02-24T05:00:26;9.85;;;3.15;;
37781;SDS011;23621;50.878;4.584;2023-02-24T05:02:59;5.75;;;2.72;;
37781;SDS011;23621;50.878;4.584;2023-02-24T05:05:27;7.20;;;2.97;;
37781;SDS011;23621;50.878;4.584;2023-02-24T05:07:54;10.55;;;2.97;;
37781;SDS011;23621;50.878;4.584;2023-02-24T05:10:29;7.93;;;2.70;;
37781;SDS011;23621;50.878;4.584;2023-02-24T05:13:00;8.82;;;2.67;;
37781;SDS011;23621;50.878;4.584;2023-02-24T05:15:28;14.02;;;2.90;;
37781;SDS011;23621;50.878;4.584;2023-02-24T05:18:02;5.40;;;2.38;;
37781;SDS011;23621;50.878;4.584;2023-02-24T05:20:40;9.55;;;2.67;;
37781;SDS011;23621;50.878;4.584;2023-02-24T05:23:37;9.98;;;2.90;;
37781;SDS011;23621;50.878;4.584;2023-02-24T05:26:06;6.05;;;2.53;;
37781;SDS011;23621;50.878;4.584;2023-02-24T05:28:35;8.60;;;3.15;;
37781;SDS011;23621;50.878;4.584;2023-02-24T05:31:13;8.18;;;3.53;;
37781;SDS011;23621;50.878;4.584;2023-02-24T05:33:50;4.32;;;2.20;;
37781;SDS011;23621;50.878;4.584;2023-02-24T05:36:24;6.55;;;2.60;;
37781;SDS011;23621;50.878;4.584;2023-02-24T05:38:53;8.73;;;2.72;;
37781;SDS011;23621;50.878;4.584;2023-02-24T05:41:23;8.30;;;2.92;;
37781;SDS011;23621;50.878;4.584;2023-02-24T05:43:58;6.50;;;3.40;;
37781;SDS011;23621;50.878;4.584;2023-02-24T05:46:28;10.00;;;3.63;;
37781;SDS011;23621;50.878;4.584;2023-02-24T05:48:59;6.80;;;3.30;;
37781;SDS011;23621;50.878;4.584;2023-02-24T05:51:28;12.82;;;2.92;;
37781;SDS011;23621;50.878;4.584;2023-02-24T05:54:05;6.75;;;3.00;;
37781;SDS011;23621;50.878;4.584;2023-02-24T05:56:34;9.15;;;3.45;;
37781;SDS011;23621;50.878;4.584;2023-02-24T05:59:03;9.60;;;3.60;;
37781;SDS011;23621;50.878;4.584;2023-02-24T06:01:36;10.43;;;3.42;;
37781;SDS011;23621;50.878;4.584;2023-02-24T06:04:11;9.10;;;3.55;;
37781;SDS011;23621;50.878;4.584;2023-02-24T06:06:47;8.85;;;3.08;;
37781;SDS011;23621;50.878;4.584;2023-02-24T06:09:18;9.10;;;2.90;;
37781;SDS011;23621;50.878;4.584;2023-02-24T06:11:48;13.82;;;3.13;;
37781;SDS011;23621;50.878;4.584;2023-02-24T06:14:15;10.95;;;3.13;;
37781;SDS011;23621;50.878;4.584;2023-02-24T06:16:42;6.00;;;2.83;;
37781;SDS011;23621;50.878;4.584;2023-02-24T06:19:10;10.68;;;3.13;;
37781;SDS011;23621;50.878;4.584;2023-02-24T06:21:38;9.82;;;3.42;;
37781;SDS011;23621;50.878;4.584;2023-02-24T06:24:13;8.15;;;3.40;;
37781;SDS011;23621;50.878;4.584;2023-02-24T06:26:41;9.73;;;3.22;;
37781;SDS011;23621;50.878;4.584;2023-02-24T06:29:15;11.95;;;3.15;;
37781;SDS011;23621;50.878;4.584;2023-02-24T06:31:43;8.52;;;3.63;;
37781;SDS011;23621;50.878;4.584;2023-02-24T06:34:11;7.68;;;3.50;;
37781;SDS011;23621;50.878;4.584;2023-02-24T06:36:43;8.95;;;3.35;;
37781;SDS011;23621;50.878;4.584;2023-02-24T06:39:12;13.40;;;3.97;;
37781;SDS011;23621;50.878;4.584;2023-02-24T06:41:39;11.10;;;3.47;;
37781;SDS011;23621;50.878;4.584;2023-02-24T06:44:07;10.75;;;4.00;;
37781;SDS011;23621;50.878;4.584;2023-02-24T06:46:35;7.05;;;3.90;;
37781;SDS011;23621;50.878;4.584;2023-02-24T06:49:02;12.30;;;3.85;;
37781;SDS011;23621;50.878;4.584;2023-02-24T06:51:29;7.70;;;3.55;;
37781;SDS011;23621;50.878;4.584;2023-02-24T06:53:56;9.68;;;5.18;;
37781;SDS011;23621;50.878;4.584;2023-02-24T06:56:25;9.55;;;5.72;;
37781;SDS011;23621;50.878;4.584;2023-02-24T06:58:53;9.98;;;4.70;;
37781;SDS011;23621;50.878;4.584;2023-02-24T07:01:25;8.90;;;4.05;;
37781;SDS011;23621;50.878;4.584;2023-02-24T07:03:55;16.70;;;4.22;;
37781;SDS011;23621;50.878;4.584;2023-02-24T07:06:39;7.68;;;3.55;;
37781;SDS011;23621;50.878;4.584;2023-02-24T07:09:12;10.27;;;4.18;;
37781;SDS011;23621;50.878;4.584;2023-02-24T07:11:42;10.88;;;3.75;;
37781;SDS011;23621;50.878;4.584;2023-02-24T07:14:21;7.88;;;3.70;;
37781;SDS011;23621;50.878;4.584;2023-02-24T07:16:49;10.95;;;3.55;;
37781;SDS011;23621;50.878;4.584;2023-02-24T07:19:21;7.95;;;3.40;;
37781;SDS011;23621;50.878;4.584;2023-02-24T07:21:53;9.57;;;4.13;;
37781;SDS011;23621;50.878;4.584;2023-02-24T07:24:26;10.85;;;3.88;;
37781;SDS011;23621;50.878;4.584;2023-02-24T07:27:09;6.65;;;3.70;;
37781;SDS011;23621;50.878;4.584;2023-02-24T07:29:47;6.70;;;3.63;;
37781;SDS011;23621;50.878;4.584;2023-02-24T07:32:18;6.32;;;3.38;;
37781;SDS011;23621;50.878;4.584;2023-02-24T07:34:47;7.20;;;3.42;;
37781;SDS011;23621;50.878;4.584;2023-02-24T07:37:14;8.07;;;3.67;;
37781;SDS011;23621;50.878;4.584;2023-02-24T07:39:42;11.23;;;3.72;;
37781;SDS011;23621;50.878;4.584;2023-02-24T07:42:09;7.93;;;3.45;;
37781;SDS011;23621;50.878;4.584;2023-02-24T07:44:40;11.93;;;3.53;;
37781;SDS011;23621;50.878;4.584;2023-02-24T07:47:09;5.65;;;3.50;;
37781;SDS011;23621;50.878;4.584;2023-02-24T07:49:37;9.38;;;3.92;;
37781;SDS011;23621;50.878;4.584;2023-02-24T07:52:06;8.75;;;3.72;;
37781;SDS011;23621;50.878;4.584;2023-02-24T07:54:34;4.47;;;2.88;;
37781;SDS011;23621;50.878;4.584;2023-02-24T07:57:02;9.43;;;3.40;;
37781;SDS011;23621;50.878;4.584;2023-02-24T07:59:31;12.68;;;3.75;;
37781;SDS011;23621;50.878;4.584;2023-02-24T08:02:00;7.25;;;3.65;;
37781;SDS011;23621;50.878;4.584;2023-02-24T08:04:30;6.20;;;2.88;;
37781;SDS011;23621;50.878;4.584;2023-02-24T08:06:58;8.27;;;3.70;;
37781;SDS011;23621;50.878;4.584;2023-02-24T08:09:29;6.28;;;2.83;;
37781;SDS011;23621;50.878;4.584;2023-02-24T08:12:10;6.13;;;2.90;;
37781;SDS011;23621;50.878;4.584;2023-02-24T08:14:43;6.90;;;2.75;;
37781;SDS011;23621;50.878;4.584;2023-02-24T08:17:20;6.82;;;2.67;;
37781;SDS011;23621;50.878;4.584;2023-02-24T08:19:49;8.20;;;3.42;;
37781;SDS011;23621;50.878;4.584;2023-02-24T08:22:38;7.53;;;3.10;;
37781;SDS011;23621;50.878;4.584;2023-02-24T08:25:09;8.98;;;2.75;;
37781;SDS011;23621;50.878;4.584;2023-02-24T08:27:48;10.90;;;3.42;;
37781;SDS011;23621;50.878;4.584;2023-02-24T08:30:42;10.40;;;3.22;;
37781;SDS011;23621;50.878;4.584;2023-02-24T08:33:17;8.38;;;3.17;;
37781;SDS011;23621;50.878;4.584;2023-02-24T08:35:49;5.38;;;2.97;;
37781;SDS011;23621;50.878;4.584;2023-02-24T08:38:18;7.57;;;2.58;;
37781;SDS011;23621;50.878;4.584;2023-02-24T08:40:51;8.00;;;2.40;;
37781;SDS011;23621;50.878;4.584;2023-02-24T08:43:27;8.40;;;2.63;;
37781;SDS011;23621;50.878;4.584;2023-02-24T08:48:45;6.38;;;2.15;;
37781;SDS011;23621;50.878;4.584;2023-02-24T08:51:28;6.10;;;2.17;;
37781;SDS011;23621;50.878;4.584;2023-02-24T08:54:05;7.43;;;2.20;;
37781;SDS011;23621;50.878;4.584;2023-02-24T08:56:36;5.30;;;2.75;;
37781;SDS011;23621;50.878;4.584;2023-02-24T08:59:12;7.63;;;2.33;;
37781;SDS011;23621;50.878;4.584;2023-02-24T09:02:03;5.65;;;2.00;;
37781;SDS011;23621;50.878;4.584;2023-02-24T09:05:03;5.18;;;2.45;;
37781;SDS011;23621;50.878;4.584;2023-02-24T09:07:39;6.70;;;2.53;;
37781;SDS011;23621;50.878;4.584;2023-02-24T09:10:10;8.30;;;2.63;;
37781;SDS011;23621;50.878;4.584;2023-02-24T09:12:43;6.72;;;2.17;;
37781;SDS011;23621;50.878;4.584;2023-02-24T09:15:11;5.72;;;2.45;;
37781;SDS011;23621;50.878;4.584;2023-02-24T09:17:41;6.65;;;2.55;;
37781;SDS011;23621;50.878;4.584;2023-02-24T09:20:14;6.78;;;2.40;;
37781;SDS011;23621;50.878;4.584;2023-02-24T09:23:02;5.70;;;2.13;;
37781;SDS011;23621;50.878;4.584;2023-02-24T09:25:31;6.80;;;2.28;;
37781;SDS011;23621;50.878;4.584;2023-02-24T09:28:10;7.00;;;2.35;;
37781;SDS011;23621;50.878;4.584;2023-02-24T09:30:44;5.43;;;3.15;;
37781;SDS011;23621;50.878;4.584;2023-02-24T09:35:56;8.38;;;2.35;;
37781;SDS011;23621;50.878;4.584;2023-02-24T09:38:46;8.73;;;2.10;;
37781;SDS011;23621;50.878;4.584;2023-02-24T09:41:28;6.88;;;2.30;;
37781;SDS011;23621;50.878;4.584;2023-02-24T09:49:38;5.25;;;2.13;;
37781;SDS011;23621;50.878;4.584;2023-02-24T09:52:16;5.63;;;2.20;;
37781;SDS011;23621;50.878;4.584;2023-02-24T09:54:47;8.10;;;2.65;;
37781;SDS011;23621;50.878;4.584;2023-02-24T09:57:36;5.38;;;2.60;;
37781;SDS011;23621;50.878;4.584;2023-02-24T10:00:37;8.65;;;2.30;;
37781;SDS011;23621;50.878;4.584;2023-02-24T10:03:17;4.50;;;2.40;;
37781;SDS011;23621;50.878;4.584;2023-02-24T10:06:12;9.15;;;2.90;;
37781;SDS011;23621;50.878;4.584;2023-02-24T10:08:50;6.90;;;2.42;;
37781;SDS011;23621;50.878;4.584;2023-02-24T10:11:44;7.72;;;2.97;;
37781;SDS011;23621;50.878;4.584;2023-02-24T10:14:40;7.22;;;2.45;;
37781;SDS011;23621;50.878;4.584;2023-02-24T10:20:10;8.15;;;2.97;;
37781;SDS011;23621;50.878;4.584;2023-02-24T10:34:11;6.55;;;2.53;;
37781;SDS011;23621;50.878;4.584;2023-02-24T10:36:46;7.47;;;2.78;;
37781;SDS011;23621;50.878;4.584;2023-02-24T10:39:16;6.40;;;2.35;;
37781;SDS011;23621;50.878;4.584;2023-02-24T10:41:51;4.68;;;2.33;;
37781;SDS011;23621;50.878;4.584;2023-02-24T10:44:27;4.95;;;2.38;;
37781;SDS011;23621;50.878;4.584;2023-02-24T10:47:05;7.13;;;3.30;;
37781;SDS011;23621;50.878;4.584;2023-02-24T10:49:45;4.47;;;2.50;;
37781;SDS011;23621;50.878;4.584;2023-02-24T10:55:05;13.20;;;3.42;;
37781;SDS011;23621;50.878;4.584;2023-02-24T10:57:54;6.05;;;2.95;;
37781;SDS011;23621;50.878;4.584;2023-02-24T11:00:49;5.82;;;3.00;;
37781;SDS011;23621;50.878;4.584;2023-02-24T11:03:26;7.25;;;3.20;;
37781;SDS011;23621;50.878;4.584;2023-02-24T11:06:02;7.32;;;3.10;;
37781;SDS011;23621;50.878;4.584;2023-02-24T11:08:35;6.45;;;2.85;;
37781;SDS011;23621;50.878;4.584;2023-02-24T11:11:20;12.90;;;3.28;;
37781;SDS011;23621;50.878;4.584;2023-02-24T11:13:56;6.30;;;2.83;;
37781;SDS011;23621;50.878;4.584;2023-02-24T11:16:48;5.57;;;3.35;;
37781;SDS011;23621;50.878;4.584;2023-02-24T11:20:14;8.55;;;3.08;;
37781;SDS011;23621;50.878;4.584;2023-02-24T11:22:36;5.07;;;2.83;;
37781;SDS011;23621;50.878;4.584;2023-02-24T11:25:26;6.50;;;3.05;;
37781;SDS011;23621;50.878;4.584;2023-02-24T11:28:01;4.45;;;2.47;;
37781;SDS011;23621;50.878;4.584;2023-02-24T11:30:36;6.07;;;3.22;;
37781;SDS011;23621;50.878;4.584;2023-02-24T11:38:44;7.15;;;3.00;;
37781;SDS011;23621;50.878;4.584;2023-02-24T11:41:26;9.25;;;2.95;;
37781;SDS011;23621;50.878;4.584;2023-02-24T11:44:03;7.85;;;3.10;;
37781;SDS011;23621;50.878;4.584;2023-02-24T11:46:46;5.07;;;3.25;;
37781;SDS011;23621;50.878;4.584;2023-02-24T11:51:55;7.18;;;2.83;;
37781;SDS011;23621;50.878;4.584;2023-02-24T11:54:26;6.85;;;3.50;;
37781;SDS011;23621;50.878;4.584;2023-02-24T11:56:58;5.53;;;3.08;;
37781;SDS011;23621;50.878;4.584;2023-02-24T12:00:12;3.88;;;2.53;;
37781;SDS011;23621;50.878;4.584;2023-02-24T12:02:36;7.05;;;2.88;;
37781;SDS011;23621;50.878;4.584;2023-02-24T12:05:13;7.65;;;3.03;;
37781;SDS011;23621;50.878;4.584;2023-02-24T12:07:44;4.95;;;2.53;;
37781;SDS011;23621;50.878;4.584;2023-02-24T12:13:04;5.40;;;2.95;;
37781;SDS011;23621;50.878;4.584;2023-02-24T12:15:36;8.07;;;3.20;;
37781;SDS011;23621;50.878;4.584;2023-02-24T12:18:13;3.70;;;2.65;;
37781;SDS011;23621;50.878;4.584;2023-02-24T12:20:50;5.30;;;3.38;;
37781;SDS011;23621;50.878;4.584;2023-02-24T12:23:32;4.32;;;2.60;;
37781;SDS011;23621;50.878;4.584;2023-02-24T12:40:14;8.52;;;3.47;;
37781;SDS011;23621;50.878;4.584;2023-02-24T12:42:59;8.13;;;3.17;;
37781;SDS011;23621;50.878;4.584;2023-02-24T12:51:11;5.88;;;3.33;;
37781;SDS011;23621;50.878;4.584;2023-02-24T12:54:01;6.63;;;3.15;;
37781;SDS011;23621;50.878;4.584;2023-02-24T12:56:35;4.85;;;2.80;;
37781;SDS011;23621;50.878;4.584;2023-02-24T12:59:21;6.85;;;3.53;;
37781;SDS011;23621;50.878;4.584;2023-02-24T13:05:01;7.40;;;3.72;;
37781;SDS011;23621;50.878;4.584;2023-02-24T13:10:36;7.60;;;3.25;;
37781;SDS011;23621;50.878;4.584;2023-02-24T13:13:14;5.38;;;3.05;;
37781;SDS011;23621;50.878;4.584;2023-02-24T13:15:48;4.93;;;3.72;;
37781;SDS011;23621;50.878;4.584;2023-02-24T13:18:24;6.30;;;3.72;;
37781;SDS011;23621;50.878;4.584;2023-02-24T13:21:05;5.97;;;3.80;;
37781;SDS011;23621;50.878;4.584;2023-02-24T13:23:32;7.22;;;3.50;;
37781;SDS011;23621;50.878;4.584;2023-02-24T13:26:00;7.90;;;3.60;;
37781;SDS011;23621;50.878;4.584;2023-02-24T13:28:30;7.13;;;3.30;;
37781;SDS011;23621;50.878;4.584;2023-02-24T13:31:02;6.82;;;3.47;;
37781;SDS011;23621;50.878;4.584;2023-02-24T13:33:39;6.50;;;3.03;;
37781;SDS011;23621;50.878;4.584;2023-02-24T13:38:44;8.45;;;4.03;;
37781;SDS011;23621;50.878;4.584;2023-02-24T13:46:29;8.68;;;4.03;;
37781;SDS011;23621;50.878;4.584;2023-02-24T14:04:48;7.07;;;4.43;;
37781;SDS011;23621;50.878;4.584;2023-02-24T14:07:24;6.93;;;4.78;;
37781;SDS011;23621;50.878;4.584;2023-02-24T14:10:01;11.73;;;5.43;;
37781;SDS011;23621;50.878;4.584;2023-02-24T14:12:54;5.45;;;4.72;;
37781;SDS011;23621;50.878;4.584;2023-02-24T14:15:53;8.90;;;4.60;;
37781;SDS011;23621;50.878;4.584;2023-02-24T14:18:24;7.35;;;4.75;;
37781;SDS011;23621;50.878;4.584;2023-02-24T14:20:54;8.63;;;5.20;;
37781;SDS011;23621;50.878;4.584;2023-02-24T14:23:29;9.55;;;5.00;;
37781;SDS011;23621;50.878;4.584;2023-02-24T14:26:01;9.68;;;5.50;;
37781;SDS011;23621;50.878;4.584;2023-02-24T14:28:34;9.52;;;5.15;;
37781;SDS011;23621;50.878;4.584;2023-02-24T14:31:07;8.85;;;5.50;;
37781;SDS011;23621;50.878;4.584;2023-02-24T14:33:36;8.20;;;5.03;;
37781;SDS011;23621;50.878;4.584;2023-02-24T14:36:28;11.07;;;6.28;;
37781;SDS011;23621;50.878;4.584;2023-02-24T14:38:59;9.98;;;5.72;;
37781;SDS011;23621;50.878;4.584;2023-02-24T14:41:28;9.27;;;5.32;;
37781;SDS011;23621;50.878;4.584;2023-02-24T14:43:55;10.10;;;6.15;;
37781;SDS011;23621;50.878;4.584;2023-02-24T14:46:22;11.00;;;5.40;;
37781;SDS011;23621;50.878;4.584;2023-02-24T14:48:54;7.75;;;4.93;;
37781;SDS011;23621;50.878;4.584;2023-02-24T14:51:22;8.65;;;5.25;;
37781;SDS011;23621;50.878;4.584;2023-02-24T14:53:59;9.07;;;5.45;;
37781;SDS011;23621;50.878;4.584;2023-02-24T14:56:30;8.52;;;5.65;;
37781;SDS011;23621;50.878;4.584;2023-02-24T14:59:01;9.32;;;6.85;;
37781;SDS011;23621;50.878;4.584;2023-02-24T15:01:47;11.40;;;6.32;;
37781;SDS011;23621;50.878;4.584;2023-02-24T15:04:36;11.25;;;6.35;;
37781;SDS011;23621;50.878;4.584;2023-02-24T15:07:13;10.57;;;6.35;;
37781;SDS011;23621;50.878;4.584;2023-02-24T15:09:44;9.13;;;5.68;;
37781;SDS011;23621;50.878;4.584;2023-02-24T15:12:20;9.30;;;5.97;;
37781;SDS011;23621;50.878;4.584;2023-02-24T15:14:50;13.73;;;6.43;;
37781;SDS011;23621;50.878;4.584;2023-02-24T15:17:29;11.98;;;7.40;;
37781;SDS011;23621;50.878;4.584;2023-02-24T15:19:57;9.25;;;6.97;;
37781;SDS011;23621;50.878;4.584;2023-02-24T15:22:28;8.95;;;6.47;;
37781;SDS011;23621;50.878;4.584;2023-02-24T15:25:12;8.80;;;5.88;;
37781;SDS011;23621;50.878;4.584;2023-02-24T15:28:00;10.23;;;6.90;;
37781;SDS011;23621;50.878;4.584;2023-02-24T15:30:34;11.82;;;6.93;;
37781;SDS011;23621;50.878;4.584;2023-02-24T15:33:10;9.65;;;7.13;;
37781;SDS011;23621;50.878;4.584;2023-02-24T15:35:52;8.90;;;6.63;;
37781;SDS011;23621;50.878;4.584;2023-02-24T15:38:24;9.55;;;6.15;;
37781;SDS011;23621;50.878;4.584;2023-02-24T15:41:00;6.90;;;6.20;;
37781;SDS011;23621;50.878;4.584;2023-02-24T15:43:30;9.77;;;6.93;;
37781;SDS011;23621;50.878;4.584;2023-02-24T15:45:59;9.85;;;7.28;;
37781;SDS011;23621;50.878;4.584;2023-02-24T15:48:26;12.30;;;7.40;;
37781;SDS011;23621;50.878;4.584;2023-02-24T15:50:57;9.20;;;6.90;;
37781;SDS011;23621;50.878;4.584;2023-02-24T15:53:30;9.30;;;6.55;;
37781;SDS011;23621;50.878;4.584;2023-02-24T15:55:57;10.10;;;6.90;;
37781;SDS011;23621;50.878;4.584;2023-02-24T15:58:24;11.82;;;7.43;;
37781;SDS011;23621;50.878;4.584;2023-02-24T16:00:51;9.82;;;7.78;;
37781;SDS011;23621;50.878;4.584;2023-02-24T16:03:19;8.90;;;7.80;;
37781;SDS011;23621;50.878;4.584;2023-02-24T16:05:46;9.55;;;8.02;;
37781;SDS011;23621;50.878;4.584;2023-02-24T16:08:15;11.52;;;8.80;;
37781;SDS011;23621;50.878;4.584;2023-02-24T16:10:44;12.50;;;9.10;;
37781;SDS011;23621;50.878;4.584;2023-02-24T16:13:22;12.93;;;8.95;;
37781;SDS011;23621;50.878;4.584;2023-02-24T16:15:50;11.88;;;7.80;;
37781;SDS011;23621;50.878;4.584;2023-02-24T16:18:21;11.25;;;8.75;;
37781;SDS011;23621;50.878;4.584;2023-02-24T16:20:50;11.52;;;8.45;;
37781;SDS011;23621;50.878;4.584;2023-02-24T16:23:22;15.48;;;9.57;;
37781;SDS011;23621;50.878;4.584;2023-02-24T16:25:53;12.63;;;9.45;;
37781;SDS011;23621;50.878;4.584;2023-02-24T16:28:22;14.88;;;8.75;;
37781;SDS011;23621;50.878;4.584;2023-02-24T16:30:50;12.55;;;8.65;;
37781;SDS011;23621;50.878;4.584;2023-02-24T16:33:18;15.25;;;9.38;;
37781;SDS011;23621;50.878;4.584;2023-02-24T16:35:50;10.52;;;8.95;;
37781;SDS011;23621;50.878;4.584;2023-02-24T16:38:20;14.05;;;9.52;;
37781;SDS011;23621;50.878;4.584;2023-02-24T16:40:52;14.23;;;9.80;;
37781;SDS011;23621;50.878;4.584;2023-02-24T16:43:20;16.02;;;8.65;;
37781;SDS011;23621;50.878;4.584;2023-02-24T16:45:46;13.98;;;9.43;;
37781;SDS011;23621;50.878;4.584;2023-02-24T16:50:43;10.60;;;8.85;;
37781;SDS011;23621;50.878;4.584;2023-02-24T16:53:15;13.52;;;9.40;;
37781;SDS011;23621;50.878;4.584;2023-02-24T16:55:44;15.85;;;8.40;;
37781;SDS011;23621;50.878;4.584;2023-02-24T16:58:12;10.30;;;7.22;;
37781;SDS011;23621;50.878;4.584;2023-02-24T17:00:40;14.00;;;7.03;;
37781;SDS011;23621;50.878;4.584;2023-02-24T17:03:17;11.85;;;7.70;;
37781;SDS011;23621;50.878;4.584;2023-02-24T17:05:48;11.75;;;7.25;;
37781;SDS011;23621;50.878;4.584;2023-02-24T17:08:16;13.13;;;8.05;;
37781;SDS011;23621;50.878;4.584;2023-02-24T17:10:43;14.45;;;7.88;;
37781;SDS011;23621;50.878;4.584;2023-02-24T17:13:11;10.77;;;7.95;;
37781;SDS011;23621;50.878;4.584;2023-02-24T17:15:43;10.40;;;7.63;;
37781;SDS011;23621;50.878;4.584;2023-02-24T17:18:10;14.38;;;8.75;;
37781;SDS011;23621;50.878;4.584;2023-02-24T17:20:38;14.88;;;8.23;;
37781;SDS011;23621;50.878;4.584;2023-02-24T17:23:05;13.15;;;9.30;;
37781;SDS011;23621;50.878;4.584;2023-02-24T17:25:33;28.30;;;19.40;;
37781;SDS011;23621;50.878;4.584;2023-02-24T17:27:59;11.07;;;7.70;;
37781;SDS011;23621;50.878;4.584;2023-02-24T17:30:29;8.65;;;4.93;;
37781;SDS011;23621;50.878;4.584;2023-02-24T17:32:59;8.18;;;3.88;;
37781;SDS011;23621;50.878;4.584;2023-02-24T17:35:26;8.32;;;3.85;;